ENTOENCN

Guest
Details From ENTO - TORP
To ENCN - Kristiansand lufthavn Kjevik
Flight Number -
Tags generated
Created
Modified
Stats Distance 90 nm / 167 km
Max Altitude 300 ft / 91 m
Waypoints 3
Social Downloads 0
Likes 0
Share VATSIM

Download

Looking for another format? Having issues loading an existing format? Contact us
Advertisement - Login to hide

Notes

Basic altitude profile: - Ascent Rate: 2500ft/min - Ascent Speed: 250kts - Cruise Altitude: 35000ft - Cruise Speed: 420kts - Descent Rate: 1500ft/min - Descent Speed: 250kts Options: - Use NATs: yes - Use PACOTS: yes - Use low airways: yes - Use high airways: yes

Route

ENTO TOR ENCN

ID Type Via Altitude Latitude Longitude Leg Dist Tot Dist Heading (true) Name
O ENTO APT - 0 ft / 0 m 59.18666˚ 10.25860˚ - 0 nm - TORP
TOR VOR - 300 ft / 91 m 59.16911˚ 10.25927˚ 1 nm 1 nm 179° / 179° TORP VOR-DME
O ENCN APT - 0 ft / 0 m 58.20419˚ 8.08534˚ 89 nm 90 nm 230° / 229° Kristiansand lufthavn Kjevik

Altitude Profile

Advertisement - Login to hide

ENTO

Details ICAO ENTO (TRF)
Name TORP
Region Norway
Timezone Europe/Oslo (UTC+1.0)
Stats Elevation 286 ft / 87 m (AMSL)
Location 59.186662° 10.258596°
Runways 1
Magnetic Variation 2.997° E

METAR

ENTO 161850Z 35008KT CAVOK M02/M06 Q1008

Decode

TAF

TAF ENTO 161700Z 1618/1718 34010KT CAVOK BECMG 1705/1707 23005KT

Decode

Departure Runways

ID Width Length Bearing (true) Bearing (mag) Surface Threshold Offset Overrun Length
18 148 ft / 45 m 9,820 ft / 2,993 m 179.40° 176.40° Asphalt 1,231 ft / 375 m 0 ft / 0 m
36 148 ft / 45 m 9,820 ft / 2,993 m 359.40° 356.40° Asphalt 1,231 ft / 375 m 0 ft / 0 m

ENCN

Details ICAO ENCN (KRS)
Name Kristiansand lufthavn Kjevik
Region Norway
Timezone Europe/Oslo (UTC+1.0)
Stats Elevation 57 ft / 17 m (AMSL)
Location 58.204191° 8.085337°
Runways 1
Magnetic Variation 2.113° E

METAR

ENCN 161850Z 06007KT CAVOK M06/M08 Q1009

Decode

TAF

Not found

Destination Runways

ID Width Length Bearing (true) Bearing (mag) Surface Threshold Offset Overrun Length
04 148 ft / 45 m 6,667 ft / 2,032 m 34.94° 32.83° Asphalt 217 ft / 66 m 131 ft / 40 m
22 148 ft / 45 m 6,667 ft / 2,032 m 214.96° 212.85° Asphalt 325 ft / 99 m 312 ft / 95 m

Approach Navaids

Runway Type Ident Frequency Range Bearing (true) Bearing (mag) Slope Elevation
04 Localiser CN 110.30 MHz 18 nm / 33 km 34.96° 32.85° - 57 ft / 17 m (AMSL)
04 Glidescope CN 110.30 MHz 10 nm / 19 km 34.95° 32.84° 3.40° 57 ft / 17 m (AMSL)
22 Localiser KJ 110.90 MHz 18 nm / 33 km 214.94° 212.83° - 57 ft / 17 m (AMSL)
22 Glidescope KJ 110.90 MHz 10 nm / 19 km 214.95° 212.84° 3.60° 57 ft / 17 m (AMSL)

Popular Alternatives